Time;durP1;ratioP1;P1;durP2;ratioP2;P2;SDS_P1;SDS_P2;PMS_P1;PMS_P2;Temp;Humidity;BMP_temperature;BMP_pressure;BME280_temperature;BME280_humidity;BME280_pressure;Samples;Min_cycle;Max_cycle;Signal;HPM_P1;HPM_P2
2022/04/17 00:00:21;;;;;;;9.45;6.57;;;7.80;63.10;;;;;;4988129;28;20058;-54
2022/04/17 00:02:46;;;;;;;9.77;7.15;;;7.70;63.20;;;;;;4991935;28;20528;-54
2022/04/17 00:05:12;;;;;;;11.32;8.20;;;7.70;63.20;;;;;;4989863;28;20050;-53
2022/04/17 00:07:39;;;;;;;22.77;16.27;;;7.70;63.40;;;;;;4971031;28;20546;-53
2022/04/17 00:10:06;;;;;;;28.27;20.48;;;7.70;64.00;;;;;;4987666;28;20050;-53
2022/04/17 00:12:32;;;;;;;28.48;20.75;;;7.70;64.70;;;;;;4989584;28;20558;-56
2022/04/17 00:15:00;;;;;;;28.58;20.60;;;7.60;65.30;;;;;;4989630;28;20050;-56
2022/04/17 00:17:26;;;;;;;27.20;19.70;;;7.50;65.90;;;;;;4990464;28;20546;-52
2022/04/17 00:19:52;;;;;;;32.65;24.10;;;7.40;66.40;;;;;;4989808;28;20085;-55
2022/04/17 00:22:18;;;;;;;36.22;27.55;;;7.30;67.00;;;;;;4989258;28;20121;-54
2022/04/17 00:24:44;;;;;;;42.33;29.30;;;7.20;67.40;;;;;;4972752;28;20061;-55
2022/04/17 00:27:10;;;;;;;38.08;26.73;;;7.20;68.20;;;;;;4988279;28;20046;-54
2022/04/17 00:29:36;;;;;;;30.45;24.13;;;7.00;68.70;;;;;;4987078;28;20038;-53
2022/04/17 00:32:03;;;;;;;27.77;20.17;;;7.00;69.30;;;;;;4986189;28;20054;-54
2022/04/17 00:34:30;;;;;;;19.02;14.25;;;7.00;69.30;;;;;;4987360;28;20626;-56
2022/04/17 00:37:00;;;;;;;17.50;10.98;;;7.00;69.20;;;;;;4972511;28;20046;-55
2022/04/17 00:39:27;;;;;;;12.57;8.73;;;7.00;69.10;;;;;;4988790;28;20054;-56
2022/04/17 00:41:55;;;;;;;10.88;8.18;;;7.00;68.70;;;;;;4987919;28;20586;-53
2022/04/17 00:44:22;;;;;;;12.27;6.85;;;7.00;68.50;;;;;;4986003;28;20133;-53
2022/04/17 00:46:48;;;;;;;13.32;7.78;;;7.00;68.20;;;;;;4988848;28;20124;-55
2022/04/17 00:49:15;;;;;;;9.90;7.18;;;7.10;68.30;;;;;;4969284;28;20046;-56
2022/04/17 00:51:43;;;;;;;9.38;7.10;;;7.10;68.20;;;;;;4967668;28;20214;-55
2022/04/17 00:54:12;;;;;;;9.63;6.57;;;7.10;68.10;;;;;;4988099;28;20050;-56
2022/04/17 00:56:38;;;;;;;9.15;6.82;;;7.10;68.00;;;;;;4979153;28;20047;-54
2022/04/17 00:59:06;;;;;;;11.25;7.18;;;7.10;67.80;;;;;;4990152;28;20060;-52
2022/04/17 01:01:33;;;;;;;15.63;10.50;;;7.10;67.70;;;;;;4988569;28;20053;-53
2022/04/17 01:04:00;;;;;;;37.33;25.08;;;7.10;67.90;;;;;;4986980;28;20054;-52
2022/04/17 01:06:30;;;;;;;43.88;32.25;;;7.10;68.70;;;;;;4991010;28;20050;-53
2022/04/17 01:08:56;;;;;;;40.67;29.73;;;6.90;70.10;;;;;;4986638;28;20042;-52
2022/04/17 01:11:22;;;;;;;37.13;26.13;;;6.80;70.50;;;;;;4978103;28;20057;-52
2022/04/17 01:13:48;;;;;;;24.70;17.45;;;6.70;71.20;;;;;;4975648;28;20513;-53
2022/04/17 01:16:17;;;;;;;28.17;19.05;;;6.60;71.30;;;;;;4972981;28;20045;-54
2022/04/17 01:19:04;;;;;;;34.67;23.67;;;6.60;71.40;;;;;;4986777;28;20424;-55
2022/04/17 01:21:31;;;;;;;28.13;19.05;;;6.50;72.50;;;;;;4987494;28;20401;-53
2022/04/17 01:26:56;;;;;;;36.40;26.25;;;6.50;73.00;;;;;;4986288;28;20057;-53
2022/04/17 01:29:28;;;;;;;37.20;26.67;;;6.40;74.20;;;;;;4986321;28;20049;-54
2022/04/17 01:31:55;;;;;;;28.88;21.25;;;6.40;75.10;;;;;;4986825;28;20490;-54
2022/04/17 01:34:21;;;;;;;23.45;16.48;;;6.40;75.80;;;;;;4987362;28;20050;-55
2022/04/17 01:36:51;;;;;;;23.75;16.42;;;6.20;76.00;;;;;;4948714;28;20099;-54
2022/04/17 01:39:18;;;;;;;30.58;22.58;;;6.20;76.20;;;;;;4986841;28;20109;-53
2022/04/17 01:41:45;;;;;;;34.75;24.17;;;6.20;76.80;;;;;;4975959;28;20046;-53
2022/04/17 01:44:11;;;;;;;39.50;28.83;;;6.20;78.40;;;;;;4970556;28;20400;-52
2022/04/17 01:46:37;;;;;;;38.30;27.83;;;6.10;79.70;;;;;;4987007;28;20104;-54
2022/04/17 01:49:06;;;;;;;40.83;27.52;;;6.10;80.60;;;;;;4988786;28;20047;-51
2022/04/17 01:51:39;;;;;;;31.75;24.50;;;6.00;81.20;;;;;;4964986;28;20239;-55
2022/04/17 01:54:07;;;;;;;26.20;19.10;;;6.00;81.70;;;;;;4986283;28;20817;-51
2022/04/17 01:56:34;;;;;;;23.05;16.20;;;6.00;81.70;;;;;;4987243;28;20476;-54
2022/04/17 01:59:00;;;;;;;18.25;11.55;;;6.00;81.90;;;;;;4984183;28;20050;-51
2022/04/17 02:01:26;;;;;;;12.85;9.43;;;6.00;81.80;;;;;;4987866;28;20085;-53
2022/04/17 02:03:52;;;;;;;12.45;8.95;;;6.00;81.50;;;;;;4987645;28;20405;-52
2022/04/17 02:06:18;;;;;;;11.50;8.10;;;6.10;81.30;;;;;;4986846;28;20149;-50
2022/04/17 02:08:44;;;;;;;10.48;7.22;;;6.10;81.10;;;;;;4990016;28;20046;-54
2022/04/17 02:11:10;;;;;;;12.85;7.22;;;6.10;80.80;;;;;;4984434;28;20073;-53
2022/04/17 02:13:36;;;;;;;12.88;6.82;;;6.10;80.60;;;;;;4990903;28;20566;-54
2022/04/17 02:16:06;;;;;;;13.50;8.55;;;6.10;80.60;;;;;;4986128;28;20053;-52
2022/04/17 02:18:32;;;;;;;11.02;6.95;;;6.20;80.60;;;;;;4988012;28;20050;-51
2022/04/17 02:20:59;;;;;;;10.77;7.25;;;6.20;80.70;;;;;;4985282;28;20196;-54
2022/04/17 02:23:25;;;;;;;11.48;7.78;;;6.20;80.60;;;;;;4990241;28;20049;-52
2022/04/17 02:25:51;;;;;;;10.68;7.47;;;6.20;80.60;;;;;;4990436;28;20065;-53
2022/04/17 02:28:16;;;;;;;11.57;7.78;;;6.20;81.00;;;;;;4990552;28;20042;-54
2022/04/17 02:30:43;;;;;;;10.75;7.88;;;6.20;81.30;;;;;;4971015;28;20461;-54
2022/04/17 02:33:09;;;;;;;11.65;7.78;;;6.20;81.30;;;;;;4988989;28;20473;-54
2022/04/17 02:35:35;;;;;;;10.77;7.28;;;6.20;81.40;;;;;;4965038;28;20050;-52
2022/04/17 02:38:00;;;;;;;10.30;7.40;;;6.20;81.30;;;;;;4987436;28;20050;-53
2022/04/17 02:40:26;;;;;;;12.73;7.88;;;6.20;81.40;;;;;;4981881;28;20514;-53
2022/04/17 02:42:53;;;;;;;11.07;8.00;;;6.30;81.50;;;;;;4985158;28;20302;-53
2022/04/17 02:45:21;;;;;;;10.73;7.80;;;6.30;81.80;;;;;;4986187;28;20878;-52
2022/04/17 02:47:50;;;;;;;11.75;7.70;;;6.30;82.10;;;;;;4987079;28;20161;-51
2022/04/17 02:50:18;;;;;;;13.27;7.88;;;6.30;82.20;;;;;;4985877;28;20042;-54
2022/04/17 02:52:45;;;;;;;9.63;7.18;;;6.20;82.10;;;;;;4984179;28;20485;-55
2022/04/17 02:55:11;;;;;;;13.68;7.82;;;6.30;82.30;;;;;;4984033;28;20120;-56
2022/04/17 02:57:37;;;;;;;13.20;8.00;;;6.30;82.40;;;;;;4967286;28;20089;-53
2022/04/17 03:00:08;;;;;;;13.05;8.27;;;6.20;82.60;;;;;;4985137;28;20057;-54
2022/04/17 03:05:39;;;;;;;13.15;8.77;;;6.20;83.00;;;;;;4986406;28;20038;-54
2022/04/17 03:08:18;;;;;;;15.30;11.05;;;6.20;83.60;;;;;;4965826;28;20054;-53
2022/04/17 03:10:48;;;;;;;17.45;12.02;;;6.10;84.90;;;;;;4985383;28;20104;-54
2022/04/17 03:13:14;;;;;;;17.90;13.32;;;6.10;85.10;;;;;;4983695;28;20412;-54
2022/04/17 03:15:40;;;;;;;19.48;14.13;;;6.20;86.40;;;;;;4986333;28;20570;-53
2022/04/17 03:18:08;;;;;;;17.95;13.45;;;6.10;86.90;;;;;;4985911;28;20412;-52
2022/04/17 03:20:34;;;;;;;18.55;13.93;;;6.00;87.60;;;;;;4985678;28;20531;-55
2022/04/17 03:23:01;;;;;;;19.48;13.45;;;5.90;87.80;;;;;;4983617;28;20042;-53
2022/04/17 03:25:27;;;;;;;17.05;13.27;;;5.90;88.70;;;;;;4966077;28;20536;-53
2022/04/17 03:27:53;;;;;;;18.80;13.60;;;5.80;89.10;;;;;;4964596;28;20137;-54
2022/04/17 03:30:19;;;;;;;18.38;13.30;;;5.80;89.60;;;;;;4964646;28;20055;-50
2022/04/17 03:32:47;;;;;;;19.38;13.20;;;5.70;90.10;;;;;;4960666;28;20050;-53
2022/04/17 03:35:14;;;;;;;19.05;13.70;;;5.70;90.40;;;;;;4978927;28;20093;-52
2022/04/17 03:37:43;;;;;;;20.60;14.85;;;5.70;90.70;;;;;;4965704;28;20051;-51
2022/04/17 03:40:16;;;;;;;22.75;13.90;;;5.60;90.80;;;;;;4961672;28;20135;-51
2022/04/17 03:42:43;;;;;;;20.50;15.00;;;5.60;91.20;;;;;;4963719;28;20907;-53
2022/04/17 03:45:17;;;;;;;18.40;13.18;;;5.60;91.30;;;;;;4965690;28;20121;-55
2022/04/17 03:47:43;;;;;;;20.95;13.52;;;5.50;91.50;;;;;;4968216;28;20464;-55
2022/04/17 03:50:10;;;;;;;18.30;12.82;;;5.50;91.70;;;;;;4968208;28;20106;-55
2022/04/17 03:52:44;;;;;;;19.35;13.48;;;5.50;91.90;;;;;;4974591;28;20042;-52
2022/04/17 03:55:11;;;;;;;18.23;12.93;;;5.50;92.20;;;;;;4966708;28;20062;-54
2022/04/17 03:57:36;;;;;;;19.98;12.40;;;5.40;92.30;;;;;;4970211;28;20508;-53
2022/04/17 04:00:05;;;;;;;19.52;13.23;;;5.50;92.80;;;;;;4966449;28;20055;-54
2022/04/17 04:02:31;;;;;;;19.70;12.95;;;5.40;92.80;;;;;;4971963;28;20050;-53
2022/04/17 04:04:57;;;;;;;17.92;12.40;;;5.40;92.70;;;;;;4970869;28;20043;-51
2022/04/17 04:07:24;;;;;;;18.17;11.98;;;5.40;92.90;;;;;;4969178;28;20065;-53
2022/04/17 04:09:49;;;;;;;16.25;11.63;;;5.40;93.20;;;;;;4960463;28;20645;-53
2022/04/17 04:12:16;;;;;;;16.92;11.45;;;5.30;93.30;;;;;;4966385;28;21729;-51
2022/04/17 04:14:42;;;;;;;15.73;10.77;;;5.30;93.30;;;;;;4971635;28;20051;-53
2022/04/17 04:17:09;;;;;;;16.23;10.70;;;5.30;93.30;;;;;;4968762;28;20065;-53
2022/04/17 04:19:35;;;;;;;14.73;10.98;;;5.40;93.30;;;;;;4953450;28;20565;-53
2022/04/17 04:22:01;;;;;;;14.75;11.18;;;5.40;93.40;;;;;;4970344;28;20885;-51
2022/04/17 04:24:27;;;;;;;13.43;10.60;;;5.30;93.30;;;;;;4966477;28;20129;-55
2022/04/17 04:29:38;;;;;;;15.75;10.75;;;5.40;93.30;;;;;;4985029;28;20139;-53
2022/04/17 04:32:05;;;;;;;15.70;11.40;;;5.40;93.30;;;;;;4990594;28;20057;-54
2022/04/17 04:34:31;;;;;;;17.67;11.15;;;5.40;93.30;;;;;;4988332;28;20073;-52
2022/04/17 04:36:56;;;;;;;17.08;11.55;;;5.40;93.30;;;;;;4988124;28;20217;-52
2022/04/17 04:39:22;;;;;;;18.42;10.63;;;5.40;93.20;;;;;;4968635;28;20046;-53
2022/04/17 04:41:48;;;;;;;18.35;11.30;;;5.40;93.20;;;;;;4985367;28;20056;-51
2022/04/17 04:44:14;;;;;;;14.48;10.80;;;5.40;93.30;;;;;;4986358;28;20049;-54
2022/04/17 04:46:40;;;;;;;18.73;10.77;;;5.40;93.40;;;;;;4987690;28;20042;-52
2022/04/17 04:51:50;;;;;;;15.57;10.95;;;5.50;93.40;;;;;;4987338;28;20151;-52
2022/04/17 04:54:16;;;;;;;16.88;10.93;;;5.40;93.30;;;;;;4990345;28;20148;-52
2022/04/17 04:56:42;;;;;;;15.77;11.70;;;5.40;93.30;;;;;;4989846;28;20046;-55
2022/04/17 04:59:09;;;;;;;15.07;10.98;;;5.40;93.50;;;;;;4985991;28;20088;-53
2022/04/17 05:01:35;;;;;;;15.73;10.77;;;5.50;93.50;;;;;;4987840;28;20967;-53
2022/04/17 05:04:01;;;;;;;17.52;11.20;;;5.50;93.50;;;;;;4989305;28;20493;-52
2022/04/17 05:06:27;;;;;;;15.93;11.52;;;5.50;93.60;;;;;;4987575;28;20050;-52
2022/04/17 05:08:53;;;;;;;14.95;11.40;;;5.50;93.50;;;;;;4962980;28;20045;-55
2022/04/17 05:11:20;;;;;;;16.08;11.07;;;5.40;93.50;;;;;;4973578;28;20103;-52
2022/04/17 05:13:46;;;;;;;21.23;11.13;;;5.50;93.60;;;;;;4986911;28;20282;-54
2022/04/17 05:16:13;;;;;;;18.23;11.93;;;5.50;93.50;;;;;;4988041;28;20112;-52
2022/04/17 05:18:39;;;;;;;16.98;11.98;;;5.50;93.60;;;;;;4990862;28;20223;-51
2022/04/17 05:21:06;;;;;;;17.58;11.93;;;5.60;93.60;;;;;;4984350;28;20137;-51
2022/04/17 05:23:32;;;;;;;16.83;12.23;;;5.60;93.70;;;;;;4980310;28;20086;-53
2022/04/17 05:26:05;;;;;;;16.48;12.02;;;5.60;93.60;;;;;;4986269;28;20519;-53
2022/04/17 05:28:31;;;;;;;;;;;5.60;93.60;;;;;;4986612;28;20061;-53
2022/04/17 05:30:58;;;;;;;17.80;12.10;;;5.60;93.70;;;;;;4987518;28;20427;-54
2022/04/17 05:33:25;;;;;;;21.83;12.45;;;5.60;93.40;;;;;;4991399;28;20576;-53
2022/04/17 05:35:52;;;;;;;16.20;12.13;;;5.60;93.40;;;;;;4970538;28;20056;-53
2022/04/17 05:38:20;;;;;;;19.48;12.20;;;5.70;93.50;;;;;;4990320;28;20090;-53
2022/04/17 05:40:50;;;;;;;15.77;12.13;;;5.70;93.40;;;;;;4991803;28;20084;-54
2022/04/17 05:43:18;;;;;;;19.70;12.52;;;5.70;93.60;;;;;;4990079;28;20481;-51
2022/04/17 05:45:44;;;;;;;19.65;13.18;;;5.70;93.50;;;;;;4988420;28;20073;-54
2022/04/17 05:48:10;;;;;;;18.80;12.40;;;5.80;93.40;;;;;;4991362;28;20110;-52
2022/04/17 05:50:38;;;;;;;18.63;11.55;;;5.90;93.50;;;;;;4989188;28;20053;-52
2022/04/17 05:53:04;;;;;;;17.48;11.88;;;5.90;93.50;;;;;;4988831;28;20058;-51
2022/04/17 05:55:30;;;;;;;16.98;11.75;;;5.90;93.30;;;;;;4981942;28;20629;-52
2022/04/17 05:57:56;;;;;;;18.80;12.77;;;6.00;93.30;;;;;;4991214;28;20176;-54
2022/04/17 06:00:22;;;;;;;17.77;11.63;;;6.00;93.00;;;;;;4978005;28;20777;-53
2022/04/17 06:02:48;;;;;;;20.23;11.38;;;6.10;93.00;;;;;;4990858;28;20232;-54
2022/04/17 06:05:15;;;;;;;16.85;11.55;;;6.10;92.90;;;;;;4994091;28;20488;-54
2022/04/17 06:07:41;;;;;;;15.05;11.23;;;6.20;92.70;;;;;;4990668;28;20463;-52
2022/04/17 06:10:09;;;;;;;20.02;12.30;;;6.20;92.50;;;;;;4991629;28;20041;-54
2022/04/17 06:12:36;;;;;;;17.88;11.95;;;6.30;92.30;;;;;;4991392;28;20103;-51
2022/04/17 06:15:03;;;;;;;21.25;12.65;;;6.40;92.20;;;;;;4993793;28;20598;-50
2022/04/17 06:17:43;;;;;;;17.10;10.82;;;6.40;91.90;;;;;;4994148;28;20050;-51
2022/04/17 06:20:13;;;;;;;17.95;11.63;;;6.50;91.90;;;;;;4992304;28;20519;-52
2022/04/17 06:22:40;;;;;;;19.10;11.25;;;6.60;91.70;;;;;;4989891;28;20482;-51
2022/04/17 06:25:11;;;;;;;15.18;10.88;;;6.60;91.60;;;;;;4995111;28;20084;-54
2022/04/17 06:27:48;;;;;;;15.57;11.23;;;6.70;91.50;;;;;;4993404;28;20393;-54
2022/04/17 06:30:16;;;;;;;17.25;11.38;;;6.80;91.30;;;;;;4992110;28;20043;-52
2022/04/17 06:32:42;;;;;;;16.38;12.00;;;6.90;91.10;;;;;;4984171;28;20137;-54
2022/04/17 06:35:10;;;;;;;17.70;11.55;;;7.00;90.90;;;;;;4989826;28;20473;-52
2022/04/17 06:37:57;;;;;;;17.63;11.00;;;7.00;90.90;;;;;;4974093;28;20108;-54
2022/04/17 06:40:25;;;;;;;15.88;10.73;;;7.10;90.60;;;;;;4991873;28;20050;-55
2022/04/17 06:42:53;;;;;;;17.63;11.93;;;7.20;90.40;;;;;;4990507;28;20488;-52
2022/04/17 06:45:19;;;;;;;15.80;11.43;;;7.30;90.50;;;;;;4988214;28;20046;-55
2022/04/17 06:47:46;;;;;;;16.02;10.70;;;7.30;90.10;;;;;;4990722;28;20042;-54
2022/04/17 06:50:12;;;;;;;15.80;10.75;;;7.40;89.50;;;;;;4990046;28;20468;-52
2022/04/17 06:52:39;;;;;;;17.80;11.00;;;7.50;89.20;;;;;;4989972;28;20046;-55
2022/04/17 06:55:06;;;;;;;17.33;11.52;;;7.60;88.80;;;;;;4990674;28;20464;-53
2022/04/17 06:57:33;;;;;;;18.48;11.77;;;7.60;88.70;;;;;;4975623;28;20077;-55
2022/04/17 07:00:04;;;;;;;16.60;11.20;;;7.70;88.40;;;;;;4970693;28;20073;-53
2022/04/17 07:02:30;;;;;;;18.55;11.35;;;7.80;87.20;;;;;;4980555;28;20474;-55
2022/04/17 07:04:56;;;;;;;15.07;10.95;;;7.90;86.60;;;;;;4992031;28;20117;-53
2022/04/17 07:07:22;;;;;;;13.90;10.75;;;8.00;85.90;;;;;;4950325;28;20133;-52
2022/04/17 07:09:48;;;;;;;15.57;10.98;;;8.10;85.60;;;;;;4987464;28;20560;-53
2022/04/17 07:12:16;;;;;;;15.15;10.63;;;8.20;85.30;;;;;;4988385;28;20467;-54
2022/04/17 07:14:41;;;;;;;15.85;11.80;;;8.30;84.70;;;;;;4984108;28;20050;-54
2022/04/17 07:17:07;;;;;;;15.52;11.13;;;8.40;84.10;;;;;;4980443;28;20050;-55
2022/04/17 07:19:33;;;;;;;17.00;11.30;;;8.40;83.50;;;;;;4971288;28;20054;-53
2022/04/17 07:21:59;;;;;;;14.20;11.13;;;8.50;83.30;;;;;;4958950;28;20064;-53
2022/04/17 07:24:26;;;;;;;13.65;11.07;;;8.60;83.00;;;;;;4959355;28;20038;-55
2022/04/17 07:26:53;;;;;;;17.10;11.27;;;8.60;82.10;;;;;;4987055;28;20520;-52
2022/04/17 07:29:22;;;;;;;18.08;10.80;;;8.70;81.80;;;;;;4987673;28;20531;-55
2022/04/17 07:31:51;;;;;;;14.43;10.65;;;8.90;81.30;;;;;;4984335;28;21993;-54
2022/04/17 07:34:21;;;;;;;14.43;10.45;;;8.90;80.50;;;;;;4986836;28;20081;-55
2022/04/17 07:36:47;;;;;;;16.55;10.68;;;9.10;80.10;;;;;;4969227;28;20052;-54
2022/04/17 07:39:17;;;;;;;18.30;11.35;;;9.20;79.80;;;;;;4971648;28;20046;-52
2022/04/17 07:41:44;;;;;;;14.27;10.63;;;9.30;79.70;;;;;;4979469;28;20053;-55
2022/04/17 07:44:13;;;;;;;16.35;10.68;;;9.50;79.00;;;;;;4957491;28;20057;-55
2022/04/17 07:46:39;;;;;;;19.63;10.60;;;9.60;78.40;;;;;;4962422;28;20536;-54
2022/04/17 07:49:06;;;;;;;17.75;10.50;;;9.70;78.00;;;;;;4973582;28;20089;-54
2022/04/17 07:51:31;;;;;;;16.40;10.25;;;9.80;77.10;;;;;;4990500;28;20053;-52
2022/04/17 07:53:57;;;;;;;14.35;9.57;;;9.90;76.30;;;;;;4959290;28;20472;-54
2022/04/17 07:56:23;;;;;;;14.15;10.23;;;10.10;75.40;;;;;;4985653;28;20088;-53
2022/04/17 07:58:49;;;;;;;12.05;9.52;;;10.20;74.90;;;;;;4982915;28;20058;-55
2022/04/17 08:01:16;;;;;;;14.32;10.00;;;10.30;74.50;;;;;;4986501;28;20465;-53
2022/04/17 08:06:12;;;;;;;12.93;9.50;;;10.50;73.40;;;;;;4980789;28;20487;-53
2022/04/17 08:08:39;;;;;;;14.02;9.68;;;10.60;73.40;;;;;;4983703;28;20567;-54
2022/04/17 08:11:05;;;;;;;13.98;9.57;;;10.70;72.30;;;;;;4983032;28;20122;-54
2022/04/17 08:13:32;;;;;;;13.55;9.30;;;10.80;71.60;;;;;;4984321;28;21849;-55
2022/04/17 08:15:58;;;;;;;13.65;9.35;;;10.90;71.10;;;;;;4983845;28;20136;-53
2022/04/17 08:18:24;;;;;;;13.30;9.27;;;11.00;71.20;;;;;;4982531;28;20553;-55
2022/04/17 08:20:50;;;;;;;17.05;9.25;;;11.00;71.00;;;;;;4978147;28;20579;-52
2022/04/17 08:23:16;;;;;;;15.30;9.95;;;11.20;71.10;;;;;;4979690;28;20383;-53
2022/04/17 08:25:42;;;;;;;12.70;9.32;;;11.30;70.60;;;;;;4981862;28;20531;-55
2022/04/17 08:28:08;;;;;;;13.68;9.15;;;11.50;70.00;;;;;;4980145;28;20046;-55
2022/04/17 08:30:35;;;;;;;10.80;8.60;;;11.60;69.50;;;;;;4983922;28;20116;-55
2022/04/17 08:33:03;;;;;;;12.23;8.68;;;11.70;69.10;;;;;;4987412;28;20077;-53
2022/04/17 08:35:29;;;;;;;14.32;9.40;;;11.80;68.70;;;;;;4987381;28;20203;-53
2022/04/17 08:37:57;;;;;;;11.38;8.85;;;11.90;68.30;;;;;;4989132;28;20629;-54
2022/04/17 08:40:26;;;;;;;12.27;8.55;;;12.00;67.90;;;;;;4986585;28;20460;-56
2022/04/17 08:42:53;;;;;;;12.05;8.77;;;12.10;67.30;;;;;;4988637;28;20053;-54
2022/04/17 08:45:20;;;;;;;13.65;8.45;;;12.20;66.90;;;;;;4987133;28;20487;-55
2022/04/17 08:47:46;;;;;;;11.82;8.75;;;12.30;66.60;;;;;;4987760;28;20038;-54
2022/04/17 08:50:14;;;;;;;11.18;8.05;;;12.40;67.10;;;;;;4985813;28;20038;-53
2022/04/17 08:52:44;;;;;;;14.35;8.50;;;12.60;66.40;;;;;;4963412;28;20505;-54
2022/04/17 08:55:10;;;;;;;11.55;8.00;;;12.70;65.90;;;;;;4987404;28;20049;-54
2022/04/17 08:57:36;;;;;;;14.23;7.70;;;12.90;65.50;;;;;;4966581;28;20050;-52
2022/04/17 09:00:08;;;;;;;11.45;7.50;;;13.00;64.80;;;;;;4986703;28;20053;-55
2022/04/17 09:02:35;;;;;;;12.35;7.50;;;13.10;64.10;;;;;;4989449;28;20208;-53
2022/04/17 09:05:09;;;;;;;14.10;7.50;;;13.20;63.40;;;;;;4990670;28;20061;-54
2022/04/17 09:08:14;;;;;;;9.35;6.78;;;13.30;62.00;;;;;;4987911;28;20049;-55
2022/04/17 09:10:40;;;;;;;10.38;6.88;;;13.40;61.30;;;;;;4978500;28;20547;-55
2022/04/17 09:13:06;;;;;;;9.75;7.47;;;13.50;61.10;;;;;;4970410;28;20053;-55
2022/04/17 09:15:37;;;;;;;10.60;6.97;;;13.60;61.70;;;;;;4968166;28;20053;-52
2022/04/17 09:18:08;;;;;;;11.77;6.43;;;13.70;61.80;;;;;;4988526;28;20081;-55
2022/04/17 09:20:34;;;;;;;10.27;6.72;;;13.80;60.90;;;;;;4989976;28;20134;-55
2022/04/17 09:23:01;;;;;;;10.10;6.75;;;14.00;60.10;;;;;;4977184;28;20620;-55
2022/04/17 09:25:28;;;;;;;9.15;6.70;;;14.10;59.50;;;;;;4987970;28;20057;-56
2022/04/17 09:28:05;;;;;;;9.10;6.30;;;14.20;59.80;;;;;;4987469;28;20074;-55
2022/04/17 09:30:35;;;;;;;9.02;6.43;;;14.30;60.30;;;;;;4957608;28;20057;-54
2022/04/17 09:33:14;;;;;;;8.60;6.40;;;14.40;59.20;;;;;;4987343;28;20546;-55
2022/04/17 09:35:52;;;;;;;8.65;6.03;;;14.50;58.80;;;;;;4972138;28;20061;-55
2022/04/17 09:38:22;;;;;;;10.65;6.57;;;14.60;58.50;;;;;;4988507;28;20109;-55
2022/04/17 09:40:49;;;;;;;12.40;6.15;;;14.70;58.20;;;;;;4987972;28;20122;-55
2022/04/17 09:43:17;;;;;;;8.23;5.82;;;14.80;58.00;;;;;;4986488;28;20224;-56
2022/04/17 09:46:07;;;;;;;8.35;5.78;;;14.90;56.50;;;;;;4988718;28;20493;-55
2022/04/17 09:48:37;;;;;;;8.57;6.10;;;15.00;56.60;;;;;;4988920;28;20074;-55
2022/04/17 09:51:23;;;;;;;7.70;5.70;;;15.20;56.40;;;;;;4979065;28;20793;-56
2022/04/17 09:54:04;;;;;;;7.25;5.32;;;15.30;54.90;;;;;;4979870;28;20054;-56
2022/04/17 09:56:39;;;;;;;6.53;4.90;;;15.40;55.50;;;;;;4987934;28;20121;-58
2022/04/17 09:59:18;;;;;;;8.48;6.15;;;15.60;56.60;;;;;;4989793;28;20493;-56
2022/04/17 10:01:50;;;;;;;6.75;5.07;;;15.80;54.50;;;;;;4988307;28;20172;-55
2022/04/17 10:04:19;;;;;;;6.55;5.07;;;15.80;55.00;;;;;;4987026;28;20075;-55
2022/04/17 10:06:51;;;;;;;8.32;4.97;;;15.90;54.40;;;;;;4990290;28;20272;-56
2022/04/17 10:09:17;;;;;;;8.55;4.93;;;16.10;54.10;;;;;;4972982;28;20046;-55
2022/04/17 10:11:43;;;;;;;5.50;4.68;;;16.20;53.10;;;;;;4989805;28;20042;-57
2022/04/17 10:14:09;;;;;;;5.90;4.65;;;16.20;52.10;;;;;;4963084;28;20168;-55
2022/04/17 10:16:41;;;;;;;8.25;5.43;;;16.30;52.20;;;;;;4976656;28;20493;-55
2022/04/17 10:19:11;;;;;;;7.88;5.30;;;16.40;51.80;;;;;;4987824;28;20497;-55
2022/04/17 10:21:42;;;;;;;7.43;5.30;;;16.50;51.80;;;;;;4987373;28;20397;-56
2022/04/17 10:24:16;;;;;;;8.45;5.13;;;16.60;51.70;;;;;;4988536;28;20046;-57
2022/04/17 10:26:52;;;;;;;8.95;5.38;;;16.80;52.50;;;;;;4984383;28;20116;-55
2022/04/17 10:29:33;;;;;;;8.38;5.07;;;16.90;52.30;;;;;;4969071;28;20493;-56
2022/04/17 10:32:21;;;;;;;7.13;5.72;;;17.10;52.50;;;;;;4985760;28;20046;-55
2022/04/17 10:35:09;;;;;;;10.55;5.95;;;17.20;51.40;;;;;;4971137;28;20169;-57
2022/04/17 10:38:39;;;;;;;8.68;5.80;;;17.30;51.20;;;;;;4988509;28;20128;-57
2022/04/17 10:41:10;;;;;;;9.13;5.60;;;17.40;51.20;;;;;;4919705;29;20560;-55
2022/04/17 10:43:47;;;;;;;7.80;5.82;;;17.60;51.90;;;;;;4918899;29;20498;-56
2022/04/17 10:46:17;;;;;;;8.27;6.03;;;17.70;50.80;;;;;;4959629;28;20089;-56
2022/04/17 10:48:57;;;;;;;9.73;5.97;;;17.80;50.90;;;;;;4991131;28;20043;-56
2022/04/17 10:51:31;;;;;;;7.43;6.38;;;17.90;51.70;;;;;;4988783;28;20133;-56
2022/04/17 10:54:13;;;;;;;8.48;6.35;;;18.00;50.60;;;;;;4988922;28;20533;-56
2022/04/17 10:56:40;;;;;;;8.95;5.88;;;18.10;51.10;;;;;;4979780;28;20088;-56
2022/04/17 10:59:16;;;;;;;8.27;5.97;;;18.20;51.20;;;;;;4971986;28;20050;-55
2022/04/17 11:01:44;;;;;;;7.63;5.75;;;18.40;50.80;;;;;;4973862;28;20042;-56
2022/04/17 11:04:19;;;;;;;6.45;5.30;;;18.50;51.00;;;;;;4991750;28;20050;-56
2022/04/17 11:06:45;;;;;;;7.57;5.43;;;18.60;51.50;;;;;;4987779;28;20327;-56
2022/04/17 11:09:21;;;;;;;6.55;4.78;;;18.60;50.20;;;;;;4990897;28;20050;-55
2022/04/17 11:11:47;;;;;;;6.25;5.07;;;18.70;49.30;;;;;;4989621;28;20077;-57
2022/04/17 11:14:22;;;;;;;6.53;5.10;;;18.80;49.40;;;;;;4970469;28;20077;-56
2022/04/17 11:16:59;;;;;;;6.70;5.07;;;18.80;49.50;;;;;;4972266;28;20045;-57
2022/04/17 11:19:33;;;;;;;6.72;5.03;;;19.00;49.10;;;;;;4991003;28;20050;-56
2022/04/17 11:22:02;;;;;;;7.43;5.15;;;19.10;49.00;;;;;;4993415;28;20050;-56
2022/04/17 11:24:54;;;;;;;7.10;4.82;;;19.20;48.30;;;;;;4966363;28;20060;-57
2022/04/17 11:27:47;;;;;;;6.97;4.50;;;19.20;47.20;;;;;;4989960;28;20062;-56
2022/04/17 11:30:13;;;;;;;7.32;4.32;;;19.20;45.10;;;;;;4974095;28;20445;-56
2022/04/17 11:32:39;;;;;;;6.05;4.35;;;19.30;46.90;;;;;;4991474;28;20046;-56
2022/04/17 11:35:07;;;;;;;6.40;4.22;;;19.40;45.90;;;;;;4968632;28;20045;-56
2022/04/17 11:37:34;;;;;;;5.32;4.15;;;19.50;46.00;;;;;;4988418;28;20061;-56
2022/04/17 11:40:19;;;;;;;5.28;4.25;;;19.50;45.80;;;;;;4970729;28;20208;-57
2022/04/17 11:42:48;;;;;;;8.23;4.40;;;19.70;45.90;;;;;;4980261;28;20062;-55
2022/04/17 11:45:16;;;;;;;6.53;4.70;;;19.80;45.50;;;;;;4990474;28;20042;-56
2022/04/17 11:47:44;;;;;;;6.10;4.50;;;19.90;45.70;;;;;;4988196;28;20046;-57
2022/04/17 11:50:12;;;;;;;6.28;5.03;;;20.00;45.10;;;;;;4990631;28;20081;-55
2022/04/17 11:52:39;;;;;;;6.22;4.30;;;20.10;44.70;;;;;;4987669;28;20056;-56
2022/04/17 11:55:06;;;;;;;5.75;4.50;;;20.20;44.90;;;;;;4989286;28;20058;-56
2022/04/17 11:57:35;;;;;;;7.07;4.20;;;20.30;44.50;;;;;;4989043;28;20046;-56
2022/04/17 12:00:01;;;;;;;6.47;4.57;;;20.30;44.50;;;;;;4990225;28;20046;-57
2022/04/17 12:02:28;;;;;;;4.95;4.00;;;20.40;44.10;;;;;;4989475;28;20637;-57
2022/04/17 12:05:08;;;;;;;4.65;4.00;;;20.50;43.90;;;;;;4989437;28;20053;-57
2022/04/17 12:07:34;;;;;;;7.13;4.55;;;20.50;42.90;;;;;;4988602;28;20057;-56
2022/04/17 12:10:07;;;;;;;4.75;4.00;;;20.60;42.70;;;;;;4988063;28;20080;-57
2022/04/17 12:12:34;;;;;;;5.75;3.85;;;20.60;42.60;;;;;;4989814;28;20089;-56
2022/04/17 12:15:03;;;;;;;4.85;3.53;;;20.60;43.30;;;;;;4979291;28;20185;-57
2022/04/17 12:17:32;;;;;;;5.57;4.25;;;20.70;43.50;;;;;;4968376;28;20570;-54
2022/04/17 12:19:58;;;;;;;4.80;3.95;;;20.90;44.70;;;;;;4992270;28;20136;-55
2022/04/17 12:22:24;;;;;;;4.85;3.80;;;21.00;43.60;;;;;;4981605;28;20527;-56
2022/04/17 12:24:51;;;;;;;6.25;4.40;;;21.20;43.30;;;;;;4991164;28;20043;-57
2022/04/17 12:27:20;;;;;;;4.90;3.70;;;21.30;42.00;;;;;;4987788;28;20608;-56
2022/04/17 12:29:47;;;;;;;7.60;4.53;;;21.40;41.20;;;;;;4990314;28;20042;-56
2022/04/17 12:32:19;;;;;;;7.18;4.18;;;21.40;41.40;;;;;;4989595;28;20125;-57
2022/04/17 12:34:45;;;;;;;5.07;3.95;;;21.40;42.00;;;;;;4991608;28;20445;-56
2022/04/17 12:37:24;;;;;;;5.25;3.75;;;21.50;41.90;;;;;;4986467;28;20053;-57
2022/04/17 12:39:49;;;;;;;5.25;4.20;;;21.50;41.00;;;;;;4987584;28;20389;-56
2022/04/17 12:42:16;;;;;;;5.68;4.15;;;21.50;41.40;;;;;;4989070;28;20050;-56
2022/04/17 12:44:42;;;;;;;5.15;4.10;;;21.50;40.60;;;;;;4980762;28;20053;-56
2022/04/17 12:47:16;;;;;;;6.70;4.15;;;21.60;41.20;;;;;;4971057;28;20054;-56
2022/04/17 12:49:42;;;;;;;6.88;4.60;;;21.70;40.70;;;;;;4990020;28;20049;-55
2022/04/17 12:52:09;;;;;;;5.90;4.43;;;21.60;40.40;;;;;;4988887;28;20045;-56
2022/04/17 12:54:36;;;;;;;5.50;4.18;;;21.70;40.90;;;;;;4990045;28;20465;-58
2022/04/17 12:57:13;;;;;;;6.47;4.78;;;21.80;40.00;;;;;;4969822;28;20046;-57
2022/04/17 12:59:39;;;;;;;5.85;4.60;;;21.90;40.20;;;;;;4990289;28;20050;-57
2022/04/17 13:02:16;;;;;;;5.38;4.55;;;21.90;40.10;;;;;;4988254;28;20053;-57